createdAt,value
2023-03-27T00:02:03.958Z,84.43
2023-03-27T00:04:30.399Z,84.36
2023-03-27T00:06:56.720Z,84.25
2023-03-27T00:09:23.044Z,84.20
2023-03-27T00:11:49.675Z,84.16
2023-03-27T00:14:16.148Z,84.12
2023-03-27T00:16:42.499Z,84.05
2023-03-27T00:19:09.114Z,84.05
2023-03-27T00:21:35.438Z,84.06
2023-03-27T00:24:01.799Z,84.10
2023-03-27T00:26:29.834Z,84.25
2023-03-27T00:28:56.490Z,84.40
2023-03-27T00:31:22.865Z,84.48
2023-03-27T00:33:49.600Z,84.50
2023-03-27T00:36:16.107Z,84.46
2023-03-27T00:38:43.196Z,84.38
2023-03-27T00:41:09.737Z,84.28
2023-03-27T00:43:41.920Z,84.27
2023-03-27T00:46:14.138Z,84.18
2023-03-27T00:48:42.779Z,84.06
2023-03-27T00:51:09.500Z,83.91
2023-03-27T00:53:36.584Z,84.09
2023-03-27T00:56:06.982Z,84.09
2023-03-27T00:58:40.975Z,83.68
2023-03-27T01:01:11.789Z,83.64
2023-03-27T01:03:41.457Z,83.87
2023-03-27T01:06:10.381Z,84.33
2023-03-27T01:08:37.844Z,84.46
2023-03-27T01:11:07.290Z,84.31
2023-03-27T01:14:06.383Z,84.25
2023-03-27T01:16:45.373Z,84.24
2023-03-27T01:19:37.589Z,84.30
2023-03-27T01:22:39.298Z,84.38
2023-03-27T01:25:33.657Z,84.55
2023-03-27T01:28:09.771Z,84.70
2023-03-27T01:30:42.678Z,84.79
2023-03-27T01:33:27.072Z,84.85
2023-03-27T01:35:59.817Z,84.90
2023-03-27T01:38:54.137Z,84.98
2023-03-27T01:41:36.990Z,85.04
2023-03-27T01:44:07.977Z,85.07
2023-03-27T01:46:51.672Z,85.12
2023-03-27T01:49:29.571Z,85.11
2023-03-27T01:52:01.425Z,85.23
2023-03-27T01:54:32.197Z,85.39
2023-03-27T01:57:21.627Z,85.48
2023-03-27T01:59:57.865Z,85.53
2023-03-27T02:03:07.975Z,85.54
2023-03-27T02:05:43.846Z,85.56
2023-03-27T02:08:20.177Z,85.62
2023-03-27T02:10:50.938Z,85.70
2023-03-27T02:13:24.660Z,85.72
2023-03-27T02:15:53.041Z,85.71
2023-03-27T02:18:28.289Z,85.70
2023-03-27T02:20:55.045Z,85.71
2023-03-27T02:23:22.266Z,85.74
2023-03-27T02:25:49.891Z,85.82
2023-03-27T02:28:43.882Z,85.90
2023-03-27T02:31:32.849Z,86.06
2023-03-27T02:34:11.262Z,86.19
2023-03-27T02:36:43.940Z,86.25
2023-03-27T02:39:23.174Z,86.27
2023-03-27T02:42:03.853Z,86.24
2023-03-27T02:44:50.937Z,86.18
2023-03-27T02:47:36.981Z,86.29
2023-03-27T02:50:27.748Z,86.30
2023-03-27T02:53:02.585Z,86.26
2023-03-27T02:55:40.650Z,86.26
2023-03-27T02:58:15.975Z,86.27
2023-03-27T03:00:51.373Z,86.28
2023-03-27T03:03:52.888Z,86.26
2023-03-27T03:06:42.632Z,86.25
2023-03-27T03:09:09.776Z,86.24
2023-03-27T03:11:44.018Z,86.28
2023-03-27T03:14:10.440Z,86.34
2023-03-27T03:16:36.927Z,86.37
2023-03-27T03:19:03.412Z,86.42
2023-03-27T03:21:31.246Z,86.51
2023-03-27T03:23:59.151Z,86.63
2023-03-27T03:26:27.059Z,86.66
2023-03-27T03:29:00.802Z,86.68
2023-03-27T03:31:42.717Z,86.65
2023-03-27T03:34:21.786Z,86.60
2023-03-27T03:36:48.518Z,86.58
2023-03-27T03:39:17.627Z,86.59
2023-03-27T03:41:46.949Z,86.64
2023-03-27T03:44:13.301Z,86.76
2023-03-27T03:46:40.308Z,86.91
2023-03-27T03:49:07.458Z,86.95
2023-03-27T03:51:35.630Z,86.97
2023-03-27T03:54:04.684Z,87.04
2023-03-27T03:56:31.155Z,87.14
2023-03-27T03:58:57.507Z,87.24
2023-03-27T04:01:25.404Z,87.40
2023-03-27T04:03:55.941Z,87.56
2023-03-27T04:06:26.630Z,87.68
2023-03-27T04:08:57.559Z,87.84
2023-03-27T04:11:44.140Z,87.98
2023-03-27T04:14:17.802Z,88.13
2023-03-27T04:16:44.253Z,88.30
2023-03-27T04:19:22.753Z,88.45
2023-03-27T04:21:55.551Z,88.67
2023-03-27T04:24:23.364Z,88.85
2023-03-27T04:26:50.667Z,89.01
2023-03-27T04:29:21.752Z,89.20
2023-03-27T04:32:12.260Z,89.32
2023-03-27T04:34:39.826Z,89.33
2023-03-27T04:37:08.833Z,89.39
2023-03-27T04:39:42.154Z,89.46
2023-03-27T04:42:09.768Z,89.49
2023-03-27T04:44:37.024Z,89.54
2023-03-27T04:47:08.020Z,89.64
2023-03-27T04:49:37.938Z,89.31
2023-03-27T04:52:13.789Z,88.87
2023-03-27T04:54:41.286Z,88.97
2023-03-27T04:57:09.349Z,89.07
2023-03-27T04:59:36.555Z,89.21
2023-03-27T05:02:22.490Z,89.39
2023-03-27T05:05:01.380Z,89.55
2023-03-27T05:07:31.613Z,89.55
2023-03-27T05:09:58.253Z,89.55
2023-03-27T05:12:27.548Z,89.73
2023-03-27T05:14:58.672Z,89.79
2023-03-27T05:17:41.391Z,89.62
2023-03-27T05:20:14.232Z,89.26
2023-03-27T05:22:41.663Z,88.28
2023-03-27T05:25:32.296Z,87.93
2023-03-27T05:28:01.485Z,87.74
2023-03-27T05:30:30.553Z,87.38
2023-03-27T05:33:16.912Z,88.10
2023-03-27T05:35:47.603Z,88.14
2023-03-27T05:38:14.999Z,87.89
2023-03-27T05:40:53.919Z,87.41
2023-03-27T05:43:21.270Z,87.33
2023-03-27T05:45:47.829Z,87.34
2023-03-27T05:48:15.076Z,88.04
2023-03-27T05:50:41.883Z,88.55
2023-03-27T05:53:16.747Z,88.46
2023-03-27T05:56:03.098Z,88.00
2023-03-27T05:58:35.828Z,87.98
2023-03-27T06:01:02.779Z,87.83
2023-03-27T06:03:36.683Z,88.00
2023-03-27T06:06:11.027Z,87.63
2023-03-27T06:08:38.121Z,87.63
2023-03-27T06:11:11.752Z,87.38
2023-03-27T06:13:45.453Z,87.13
2023-03-27T06:16:16.136Z,87.03
2023-03-27T06:19:02.299Z,87.00
2023-03-27T06:21:28.828Z,87.09
2023-03-27T06:23:59.376Z,87.08
2023-03-27T06:26:27.735Z,87.12
2023-03-27T06:28:54.522Z,87.09
2023-03-27T06:31:21.491Z,87.07
2023-03-27T06:34:02.524Z,87.05
2023-03-27T06:36:40.367Z,87.18
2023-03-27T06:39:08.241Z,87.27
2023-03-27T06:41:35.122Z,87.34
2023-03-27T06:44:04.310Z,87.39
2023-03-27T06:46:45.258Z,87.48
2023-03-27T06:49:32.548Z,87.57
2023-03-27T06:52:02.921Z,87.56
2023-03-27T06:54:29.416Z,87.48
2023-03-27T06:56:55.985Z,87.44
2023-03-27T06:59:22.825Z,87.33
2023-03-27T07:01:54.148Z,87.09
2023-03-27T07:04:57.689Z,86.86
2023-03-27T07:07:31.407Z,86.46
2023-03-27T07:09:58.378Z,85.99
2023-03-27T07:12:26.293Z,85.60
2023-03-27T07:14:52.850Z,85.37
2023-03-27T07:17:21.753Z,85.27
2023-03-27T07:19:54.025Z,85.20
2023-03-27T07:22:23.945Z,85.20
2023-03-27T07:24:50.344Z,85.16
2023-03-27T07:27:17.372Z,85.15
2023-03-27T07:29:45.212Z,84.86
2023-03-27T07:32:29.802Z,84.23
2023-03-27T07:35:04.571Z,83.71
2023-03-27T07:38:02.495Z,81.89
2023-03-27T07:40:42.838Z,81.10
2023-03-27T07:43:27.834Z,80.07
2023-03-27T07:45:55.067Z,79.75
2023-03-27T07:48:21.554Z,78.92
2023-03-27T07:50:48.096Z,78.43
2023-03-27T07:53:32.902Z,78.41
2023-03-27T07:56:08.823Z,77.54
2023-03-27T07:58:36.306Z,76.97
2023-03-27T08:01:03.849Z,76.90
2023-03-27T08:03:31.963Z,77.06
2023-03-27T08:06:00.761Z,77.21
2023-03-27T08:08:29.333Z,77.04
2023-03-27T08:10:58.799Z,76.91
2023-03-27T08:13:28.875Z,76.47
2023-03-27T08:16:05.127Z,75.57
2023-03-27T08:18:31.645Z,74.86
2023-03-27T08:21:02.564Z,75.12
2023-03-27T08:23:30.422Z,75.33
2023-03-27T08:26:15.362Z,75.24
2023-03-27T08:28:56.361Z,74.05
2023-03-27T08:31:27.087Z,73.82
2023-03-27T08:33:53.691Z,73.81
2023-03-27T08:36:23.775Z,73.98
2023-03-27T08:38:54.385Z,73.61
2023-03-27T08:41:30.070Z,73.39
2023-03-27T08:44:19.330Z,72.82
2023-03-27T08:46:55.362Z,72.71
2023-03-27T08:49:25.871Z,73.02
2023-03-27T08:52:32.366Z,72.89
2023-03-27T08:55:13.871Z,72.50
2023-03-27T08:57:49.561Z,71.82
2023-03-27T09:00:25.824Z,71.43
2023-03-27T09:03:05.538Z,71.29
2023-03-27T09:05:42.083Z,70.62
2023-03-27T09:08:25.918Z,70.32
2023-03-27T09:11:13.994Z,70.03
2023-03-27T09:13:50.909Z,69.72
2023-03-27T09:16:32.291Z,69.83
2023-03-27T09:19:22.065Z,69.56
2023-03-27T09:21:53.954Z,68.87
2023-03-27T09:24:42.614Z,68.20
2023-03-27T09:27:37.711Z,68.06
2023-03-27T09:30:33.012Z,68.36
2023-03-27T09:33:05.756Z,68.97
2023-03-27T09:35:34.701Z,69.11
2023-03-27T09:38:12.531Z,68.99
2023-03-27T09:40:47.746Z,68.97
2023-03-27T09:43:22.354Z,68.31
2023-03-27T09:45:53.012Z,67.66
2023-03-27T09:48:27.725Z,67.94
2023-03-27T09:50:54.190Z,68.06
2023-03-27T09:53:39.047Z,68.13
2023-03-27T09:56:16.764Z,67.85
2023-03-27T09:58:48.444Z,67.32
2023-03-27T10:01:19.710Z,66.57
2023-03-27T10:03:52.898Z,66.15
2023-03-27T10:06:30.836Z,65.54
2023-03-27T10:09:19.032Z,65.60
2023-03-27T10:11:47.530Z,65.29
2023-03-27T10:14:23.208Z,65.39
2023-03-27T10:16:50.061Z,65.61
2023-03-27T10:19:39.367Z,65.75
2023-03-27T10:22:22.931Z,65.67
2023-03-27T10:24:52.342Z,66.20
2023-03-27T10:27:24.195Z,66.41
2023-03-27T10:30:24.682Z,66.70
2023-03-27T10:32:52.188Z,66.87
2023-03-27T10:35:39.356Z,66.57
2023-03-27T10:38:17.601Z,66.50
2023-03-27T10:41:16.845Z,66.28
2023-03-27T10:43:57.045Z,65.77
2023-03-27T10:46:26.564Z,65.52
2023-03-27T10:49:23.784Z,65.08
2023-03-27T10:52:16.400Z,65.33
2023-03-27T10:55:40.732Z,66.04
2023-03-27T10:58:36.067Z,65.13
2023-03-27T11:01:25.903Z,64.49
2023-03-27T11:04:15.386Z,63.90
2023-03-27T11:06:56.564Z,63.68
2023-03-27T11:09:37.989Z,63.44
2023-03-27T11:12:13.910Z,63.35
2023-03-27T11:15:21.557Z,63.16
2023-03-27T11:18:14.175Z,62.85
2023-03-27T11:21:05.154Z,62.18
2023-03-27T11:23:45.841Z,62.57
2023-03-27T11:26:26.767Z,62.94
2023-03-27T11:28:53.329Z,60.70
2023-03-27T11:31:33.533Z,59.39
2023-03-27T11:34:29.511Z,58.00
2023-03-27T11:37:38.962Z,57.48
2023-03-27T11:40:12.890Z,57.12
2023-03-27T11:42:43.398Z,57.60
2023-03-27T11:45:16.880Z,57.94
2023-03-27T11:48:09.352Z,57.02
2023-03-27T11:50:52.374Z,57.42
2023-03-27T11:53:34.660Z,56.37
2023-03-27T11:56:22.973Z,56.40
2023-03-27T11:59:08.987Z,56.26
2023-03-27T12:01:53.353Z,56.57
2023-03-27T12:04:52.169Z,56.21
2023-03-27T12:07:36.374Z,56.93
2023-03-27T12:10:31.408Z,58.04
2023-03-27T12:13:34.939Z,57.70
2023-03-27T12:16:20.187Z,57.26
2023-03-27T12:19:29.854Z,57.36
2023-03-27T12:22:24.370Z,57.13
2023-03-27T12:25:14.599Z,56.22
2023-03-27T12:28:52.883Z,56.20
2023-03-27T12:31:47.543Z,55.45
2023-03-27T12:34:38.359Z,55.34
2023-03-27T12:37:11.510Z,54.69
2023-03-27T12:39:47.623Z,55.02
2023-03-27T12:42:35.512Z,55.20
2023-03-27T12:45:26.750Z,56.12
2023-03-27T12:48:26.819Z,56.84
2023-03-27T12:50:56.617Z,57.12
2023-03-27T12:53:26.399Z,57.14
2023-03-27T12:56:08.958Z,57.84
2023-03-27T12:58:37.479Z,58.42
2023-03-27T13:01:20.923Z,59.05
2023-03-27T13:04:16.241Z,59.42
2023-03-27T13:06:59.504Z,59.27
2023-03-27T13:09:46.780Z,58.73
2023-03-27T13:12:45.195Z,58.29
2023-03-27T13:15:30.144Z,58.25
2023-03-27T13:18:22.097Z,58.56
2023-03-27T13:21:18.374Z,59.04
2023-03-27T13:24:08.581Z,59.51
2023-03-27T13:26:50.443Z,59.62
2023-03-27T13:29:23.259Z,59.65
2023-03-27T13:32:23.796Z,59.40
2023-03-27T13:35:18.831Z,59.28
2023-03-27T13:37:53.988Z,58.82
2023-03-27T13:40:54.495Z,58.37
2023-03-27T13:43:32.974Z,57.86
2023-03-27T13:46:05.078Z,57.91
2023-03-27T13:48:40.820Z,58.03
2023-03-27T13:51:44.198Z,58.43
2023-03-27T13:54:33.230Z,58.96
2023-03-27T13:57:37.660Z,59.62
2023-03-27T14:00:23.360Z,60.26
2023-03-27T14:03:18.049Z,60.60
2023-03-27T14:06:00.283Z,60.79
2023-03-27T14:08:56.096Z,61.12
2023-03-27T14:12:16.512Z,61.25
2023-03-27T14:15:45.473Z,60.95
2023-03-27T14:18:58.909Z,61.05
2023-03-27T14:21:38.275Z,61.41
2023-03-27T14:24:22.533Z,61.37
2023-03-27T14:26:52.888Z,61.32
2023-03-27T14:29:20.527Z,61.48
2023-03-27T14:31:49.990Z,61.33
2023-03-27T14:34:43.493Z,61.30
2023-03-27T14:37:38.368Z,61.47
2023-03-27T14:40:31.284Z,62.00
2023-03-27T14:43:01.465Z,62.40
2023-03-27T14:45:32.853Z,62.74
2023-03-27T14:48:12.863Z,62.87
2023-03-27T14:50:45.844Z,63.08
2023-03-27T14:53:17.620Z,63.28
2023-03-27T14:56:03.856Z,63.67
2023-03-27T14:58:52.778Z,63.63
2023-03-27T15:01:19.601Z,63.55
2023-03-27T15:03:52.173Z,64.10
2023-03-27T15:06:21.432Z,64.49
2023-03-27T15:08:54.991Z,64.96
2023-03-27T15:11:53.773Z,65.38
2023-03-27T15:14:28.479Z,65.66
2023-03-27T15:17:17.066Z,66.01
2023-03-27T15:19:53.084Z,66.07
2023-03-27T15:22:33.015Z,65.93
2023-03-27T15:25:17.070Z,66.18
2023-03-27T15:27:52.147Z,66.32
2023-03-27T15:30:31.378Z,66.40
2023-03-27T15:33:03.556Z,66.13
2023-03-27T15:35:34.463Z,65.60
2023-03-27T15:38:06.692Z,65.72
2023-03-27T15:40:39.026Z,65.73
2023-03-27T15:43:13.795Z,65.85
2023-03-27T15:45:56.732Z,65.87
2023-03-27T15:48:30.440Z,65.61
2023-03-27T15:51:10.011Z,65.49
2023-03-27T15:53:39.414Z,65.74
2023-03-27T15:56:05.887Z,66.09
2023-03-27T15:58:45.679Z,66.23
2023-03-27T16:01:35.968Z,66.43
2023-03-27T16:04:15.993Z,66.42
2023-03-27T16:06:48.291Z,66.67
2023-03-27T16:09:20.657Z,66.81
2023-03-27T16:11:48.808Z,66.94
2023-03-27T16:14:41.000Z,66.90
2023-03-27T16:17:14.638Z,66.90
2023-03-27T16:19:48.355Z,67.01
2023-03-27T16:22:32.821Z,66.99
2023-03-27T16:25:01.041Z,66.98
2023-03-27T16:27:49.060Z,66.83
2023-03-27T16:30:27.797Z,66.84
2023-03-27T16:32:55.229Z,67.03
2023-03-27T16:35:22.064Z,66.90
2023-03-27T16:37:49.510Z,66.68
2023-03-27T16:40:16.118Z,66.48
2023-03-27T16:42:42.544Z,66.04
2023-03-27T16:45:09.321Z,65.67
2023-03-27T16:47:35.728Z,65.21
2023-03-27T16:50:11.383Z,65.14
2023-03-27T16:52:38.400Z,65.48
2023-03-27T16:55:07.166Z,67.09
2023-03-27T16:57:35.427Z,68.93
2023-03-27T17:00:02.675Z,69.73
2023-03-27T17:02:29.114Z,70.33
2023-03-27T17:04:55.844Z,71.00
2023-03-27T17:07:26.606Z,71.40
2023-03-27T17:09:52.962Z,71.79
2023-03-27T17:12:19.621Z,72.44
2023-03-27T17:14:46.546Z,72.49
2023-03-27T17:17:13.604Z,73.19
2023-03-27T17:19:40.040Z,73.39
2023-03-27T17:22:06.404Z,73.58
2023-03-27T17:24:40.171Z,74.02
2023-03-27T17:27:12.204Z,74.22
2023-03-27T17:29:41.299Z,74.27
2023-03-27T17:32:08.272Z,74.30
2023-03-27T17:34:35.249Z,74.30
2023-03-27T17:37:01.759Z,74.14
2023-03-27T17:39:28.384Z,74.15
2023-03-27T17:41:54.813Z,74.37
2023-03-27T17:44:21.154Z,74.64
2023-03-27T17:46:47.583Z,75.22
2023-03-27T17:49:14.099Z,75.66
2023-03-27T17:51:41.023Z,76.10
2023-03-27T17:54:07.337Z,76.46
2023-03-27T17:56:33.691Z,76.76
2023-03-27T17:59:00.636Z,77.51
2023-03-27T18:01:27.325Z,78.26
2023-03-27T18:03:54.776Z,78.91
2023-03-27T18:06:21.951Z,79.33
2023-03-27T18:08:49.069Z,79.51
2023-03-27T18:11:15.972Z,79.43
2023-03-27T18:13:42.533Z,79.43
2023-03-27T18:16:12.615Z,79.52
2023-03-27T18:18:40.264Z,79.67
2023-03-27T18:21:09.455Z,79.66
2023-03-27T18:23:37.766Z,79.74
2023-03-27T18:26:12.792Z,79.67
2023-03-27T18:28:39.205Z,79.49
2023-03-27T18:31:08.509Z,79.34
2023-03-27T18:33:36.095Z,79.26
2023-03-27T18:36:04.055Z,79.28
2023-03-27T18:38:32.896Z,79.10
2023-03-27T18:41:00.227Z,78.91
2023-03-27T18:43:27.842Z,78.86
2023-03-27T18:45:56.239Z,78.80
2023-03-27T18:48:23.489Z,78.44
2023-03-27T18:50:58.030Z,78.47
2023-03-27T18:53:26.052Z,78.57
2023-03-27T18:55:54.412Z,78.65
2023-03-27T18:58:23.591Z,78.73
2023-03-27T19:00:50.819Z,78.71
2023-03-27T19:03:19.474Z,78.70
2023-03-27T19:05:47.162Z,78.78
2023-03-27T19:08:14.307Z,78.92
2023-03-27T19:10:41.258Z,79.02
2023-03-27T19:13:18.270Z,79.12
2023-03-27T19:16:15.389Z,79.21
2023-03-27T19:19:11.428Z,79.36
2023-03-27T19:21:53.583Z,79.49
2023-03-27T19:24:32.817Z,79.54
2023-03-27T19:26:59.654Z,79.57
2023-03-27T19:29:26.069Z,79.60
2023-03-27T19:31:53.677Z,79.53
2023-03-27T19:34:27.326Z,79.45
2023-03-27T19:37:03.042Z,79.49
2023-03-27T19:39:29.374Z,79.49
2023-03-27T19:41:55.874Z,79.43
2023-03-27T19:44:23.064Z,79.34
2023-03-27T19:46:49.710Z,79.24
2023-03-27T19:49:16.395Z,79.09
2023-03-27T19:51:54.043Z,78.40
2023-03-27T19:54:20.527Z,77.68
2023-03-27T19:56:46.963Z,76.99
2023-03-27T19:59:20.840Z,76.40
2023-03-27T20:01:54.993Z,75.65
2023-03-27T20:04:21.458Z,75.02
2023-03-27T20:06:48.055Z,74.74
2023-03-27T20:09:14.561Z,74.27
2023-03-27T20:11:41.195Z,73.86
2023-03-27T20:14:11.018Z,73.51
2023-03-27T20:16:40.809Z,72.99
2023-03-27T20:19:08.683Z,72.12
2023-03-27T20:21:38.722Z,71.12
2023-03-27T20:24:09.103Z,71.01
2023-03-27T20:26:41.099Z,70.94
2023-03-27T20:29:15.585Z,70.76
2023-03-27T20:31:44.639Z,70.75
2023-03-27T20:34:11.304Z,70.71
2023-03-27T20:36:38.310Z,70.55
2023-03-27T20:39:15.027Z,70.34
2023-03-27T20:41:41.744Z,70.07
2023-03-27T20:44:15.323Z,69.75
2023-03-27T20:46:50.334Z,69.70
2023-03-27T20:51:53.485Z,69.60
2023-03-27T20:54:19.908Z,69.19
2023-03-27T20:56:46.361Z,69.04
2023-03-27T20:59:13.418Z,69.26
2023-03-27T21:01:42.405Z,69.22
2023-03-27T21:04:10.810Z,69.31
2023-03-27T21:06:37.617Z,69.27
2023-03-27T21:09:06.687Z,69.36
2023-03-27T21:11:33.584Z,69.24
2023-03-27T21:14:00.029Z,69.29
2023-03-27T21:16:26.979Z,69.40
2023-03-27T21:18:53.446Z,69.46
2023-03-27T21:21:20.010Z,69.44
2023-03-27T21:23:47.440Z,69.40
2023-03-27T21:26:15.349Z,69.58
2023-03-27T21:28:41.716Z,69.61
2023-03-27T21:31:09.828Z,69.54
2023-03-27T21:33:37.380Z,69.49
2023-03-27T21:36:04.510Z,69.57
2023-03-27T21:38:31.089Z,69.63
2023-03-27T21:40:57.449Z,69.66
2023-03-27T21:43:23.871Z,69.76
2023-03-27T21:45:50.970Z,69.87
2023-03-27T21:48:17.765Z,69.89
2023-03-27T21:50:44.346Z,69.94
2023-03-27T21:53:11.614Z,69.88
2023-03-27T21:55:38.287Z,69.96
2023-03-27T21:58:05.486Z,69.95
2023-03-27T22:00:32.296Z,69.95
2023-03-27T22:02:58.845Z,70.06
2023-03-27T22:05:25.752Z,70.06
2023-03-27T22:07:52.180Z,70.16
2023-03-27T22:10:18.633Z,70.20
2023-03-27T22:12:44.963Z,70.15
2023-03-27T22:15:11.414Z,70.14
2023-03-27T22:17:38.153Z,70.36
2023-03-27T22:20:06.308Z,70.39
2023-03-27T22:22:34.824Z,70.30
2023-03-27T22:25:01.335Z,70.25
2023-03-27T22:27:27.984Z,70.45
2023-03-27T22:29:54.324Z,70.48
2023-03-27T22:32:20.702Z,70.50
2023-03-27T22:34:48.510Z,70.76
2023-03-27T22:37:16.016Z,71.04
2023-03-27T22:39:42.340Z,71.22
2023-03-27T22:42:10.124Z,71.24
2023-03-27T22:44:36.497Z,71.41
2023-03-27T22:47:02.906Z,71.60
2023-03-27T22:49:29.274Z,71.78
2023-03-27T22:51:55.603Z,71.96
2023-03-27T22:54:22.390Z,72.21
2023-03-27T22:56:48.734Z,72.38
2023-03-27T22:59:16.614Z,72.48
2023-03-27T23:01:44.007Z,72.66
2023-03-27T23:04:10.873Z,72.91
2023-03-27T23:06:37.963Z,73.17
2023-03-27T23:09:04.473Z,73.33
2023-03-27T23:11:30.900Z,73.37
2023-03-27T23:13:57.203Z,73.59
2023-03-27T23:16:23.650Z,73.86
2023-03-27T23:18:50.448Z,74.13
2023-03-27T23:21:17.560Z,74.39
2023-03-27T23:23:44.708Z,74.53
2023-03-27T23:26:12.079Z,74.62
2023-03-27T23:28:40.690Z,74.66
2023-03-27T23:31:11.567Z,74.62
2023-03-27T23:33:40.884Z,74.48
2023-03-27T23:36:13.110Z,74.42
2023-03-27T23:38:41.160Z,74.36
2023-03-27T23:41:10.322Z,74.57
2023-03-27T23:43:37.409Z,74.63
2023-03-27T23:46:07.991Z,74.77
2023-03-27T23:48:34.668Z,74.97
2023-03-27T23:51:01.506Z,75.10
2023-03-27T23:53:28.839Z,75.21
2023-03-27T23:55:57.136Z,75.33
2023-03-27T23:58:27.710Z,75.40
